sensor_id;sensor_type;location;lat;lon;timestamp;P1;durP1;ratioP1;P2;durP2;ratioP2
14015;SDS011;7083;48.854;9.158;2023-02-01T00:00:54;1045.87;;;974.47;;
14015;SDS011;7083;48.854;9.158;2023-02-01T00:03:20;1010.17;;;943.03;;
14015;SDS011;7083;48.854;9.158;2023-02-01T00:05:54;1012.30;;;945.10;;
14015;SDS011;7083;48.854;9.158;2023-02-01T00:08:21;1044.87;;;973.70;;
14015;SDS011;7083;48.854;9.158;2023-02-01T00:10:48;1034.00;;;963.33;;
14015;SDS011;7083;48.854;9.158;2023-02-01T00:13:15;1023.53;;;954.23;;
14015;SDS011;7083;48.854;9.158;2023-02-01T00:15:41;1029.63;;;960.07;;
14015;SDS011;7083;48.854;9.158;2023-02-01T00:18:09;938.57;;;879.03;;
14015;SDS011;7083;48.854;9.158;2023-02-01T00:20:36;1006.30;;;939.40;;
14015;SDS011;7083;48.854;9.158;2023-02-01T00:23:03;1041.03;;;970.43;;
14015;SDS011;7083;48.854;9.158;2023-02-01T00:25:31;1055.33;;;982.63;;
14015;SDS011;7083;48.854;9.158;2023-02-01T00:27:57;1048.03;;;975.90;;
14015;SDS011;7083;48.854;9.158;2023-02-01T00:30:25;1041.27;;;970.43;;
14015;SDS011;7083;48.854;9.158;2023-02-01T00:32:52;1015.77;;;947.77;;
14015;SDS011;7083;48.854;9.158;2023-02-01T00:35:20;1045.93;;;974.47;;
14015;SDS011;7083;48.854;9.158;2023-02-01T00:37:47;1054.50;;;982.30;;
14015;SDS011;7083;48.854;9.158;2023-02-01T00:40:13;1055.60;;;982.87;;
14015;SDS011;7083;48.854;9.158;2023-02-01T00:42:40;998.60;;;930.10;;
14015;SDS011;7083;48.854;9.158;2023-02-01T00:45:07;1059.40;;;986.23;;
14015;SDS011;7083;48.854;9.158;2023-02-01T00:47:35;1061.63;;;987.97;;
14015;SDS011;7083;48.854;9.158;2023-02-01T00:50:02;1060.27;;;986.50;;
14015;SDS011;7083;48.854;9.158;2023-02-01T00:52:30;1056.97;;;984.17;;
14015;SDS011;7083;48.854;9.158;2023-02-01T00:54:57;1074.57;;;999.27;;
14015;SDS011;7083;48.854;9.158;2023-02-01T00:57:23;1044.60;;;972.40;;
14015;SDS011;7083;48.854;9.158;2023-02-01T00:59:50;1080.83;;;999.90;;
14015;SDS011;7083;48.854;9.158;2023-02-01T01:02:17;1092.13;;;999.90;;
14015;SDS011;7083;48.854;9.158;2023-02-01T01:04:43;1119.93;;;999.90;;
14015;SDS011;7083;48.854;9.158;2023-02-01T01:07:10;1131.13;;;999.90;;
14015;SDS011;7083;48.854;9.158;2023-02-01T01:09:38;1071.87;;;991.37;;
14015;SDS011;7083;48.854;9.158;2023-02-01T01:12:05;1144.00;;;999.90;;
14015;SDS011;7083;48.854;9.158;2023-02-01T01:14:32;1125.07;;;999.90;;
14015;SDS011;7083;48.854;9.158;2023-02-01T01:16:58;1135.00;;;999.90;;
14015;SDS011;7083;48.854;9.158;2023-02-01T01:19:25;1137.97;;;999.90;;
14015;SDS011;7083;48.854;9.158;2023-02-01T01:21:52;1175.83;;;999.90;;
14015;SDS011;7083;48.854;9.158;2023-02-01T01:24:18;1118.73;;;999.90;;
14015;SDS011;7083;48.854;9.158;2023-02-01T01:26:46;1241.00;;;999.90;;
14015;SDS011;7083;48.854;9.158;2023-02-01T01:29:13;1172.73;;;999.90;;
14015;SDS011;7083;48.854;9.158;2023-02-01T01:31:40;1177.60;;;999.90;;
14015;SDS011;7083;48.854;9.158;2023-02-01T01:34:07;1160.97;;;999.90;;
14015;SDS011;7083;48.854;9.158;2023-02-01T01:36:34;1162.47;;;999.90;;
14015;SDS011;7083;48.854;9.158;2023-02-01T01:39:01;998.00;;;917.30;;
14015;SDS011;7083;48.854;9.158;2023-02-01T01:41:29;1130.27;;;999.90;;
14015;SDS011;7083;48.854;9.158;2023-02-01T01:43:59;1132.43;;;999.90;;
14015;SDS011;7083;48.854;9.158;2023-02-01T01:46:27;1134.67;;;999.90;;
14015;SDS011;7083;48.854;9.158;2023-02-01T01:48:58;1147.13;;;999.90;;
14015;SDS011;7083;48.854;9.158;2023-02-01T01:51:29;1092.60;;;999.90;;
14015;SDS011;7083;48.854;9.158;2023-02-01T01:53:59;1078.27;;;998.03;;
14015;SDS011;7083;48.854;9.158;2023-02-01T01:56:31;1113.63;;;999.90;;
14015;SDS011;7083;48.854;9.158;2023-02-01T01:59:01;1101.90;;;999.90;;
14015;SDS011;7083;48.854;9.158;2023-02-01T02:01:30;1094.67;;;999.90;;
14015;SDS011;7083;48.854;9.158;2023-02-01T02:03:57;1090.90;;;999.90;;
14015;SDS011;7083;48.854;9.158;2023-02-01T02:06:31;1087.50;;;999.90;;
14015;SDS011;7083;48.854;9.158;2023-02-01T02:09:04;1086.97;;;999.90;;
14015;SDS011;7083;48.854;9.158;2023-02-01T02:11:31;1057.10;;;982.17;;
14015;SDS011;7083;48.854;9.158;2023-02-01T02:13:58;1085.77;;;999.90;;
14015;SDS011;7083;48.854;9.158;2023-02-01T02:16:37;1039.80;;;965.50;;
14015;SDS011;7083;48.854;9.158;2023-02-01T02:19:13;1063.07;;;987.43;;
14015;SDS011;7083;48.854;9.158;2023-02-01T02:22:18;1636.10;;;947.20;;
14015;SDS011;7083;48.854;9.158;2023-02-01T02:28:15;1621.90;;;935.03;;
14015;SDS011;7083;48.854;9.158;2023-02-01T02:31:07;1553.97;;;870.87;;
14015;SDS011;7083;48.854;9.158;2023-02-01T02:34:00;1497.03;;;818.17;;
14015;SDS011;7083;48.854;9.158;2023-02-01T02:36:36;852.07;;;790.70;;
14015;SDS011;7083;48.854;9.158;2023-02-01T02:39:12;873.80;;;809.90;;
14015;SDS011;7083;48.854;9.158;2023-02-01T02:41:48;849.97;;;787.63;;
14015;SDS011;7083;48.854;9.158;2023-02-01T02:44:43;1533.67;;;852.50;;
14015;SDS011;7083;48.854;9.158;2023-02-01T02:47:32;1553.73;;;870.70;;
14015;SDS011;7083;48.854;9.158;2023-02-01T02:50:05;1999.90;;;999.90;;
14015;SDS011;7083;48.854;9.158;2023-02-01T02:52:57;1557.73;;;874.60;;
14015;SDS011;7083;48.854;9.158;2023-02-01T02:55:45;1677.10;;;986.90;;
14015;SDS011;7083;48.854;9.158;2023-02-01T02:58:12;1046.07;;;974.50;;
14015;SDS011;7083;48.854;9.158;2023-02-01T03:00:58;1055.27;;;980.83;;
14015;SDS011;7083;48.854;9.158;2023-02-01T03:03:43;1002.00;;;935.90;;
14015;SDS011;7083;48.854;9.158;2023-02-01T03:06:30;1033.33;;;961.93;;
14015;SDS011;7083;48.854;9.158;2023-02-01T03:08:59;1033.87;;;963.63;;
14015;SDS011;7083;48.854;9.158;2023-02-01T03:11:30;862.67;;;801.17;;
14015;SDS011;7083;48.854;9.158;2023-02-01T03:14:12;872.63;;;809.60;;
14015;SDS011;7083;48.854;9.158;2023-02-01T03:16:42;999.97;;;928.93;;
14015;SDS011;7083;48.854;9.158;2023-02-01T03:19:14;795.83;;;737.77;;
14015;SDS011;7083;48.854;9.158;2023-02-01T03:21:47;781.47;;;736.83;;
14015;SDS011;7083;48.854;9.158;2023-02-01T03:24:17;1050.97;;;978.53;;
14015;SDS011;7083;48.854;9.158;2023-02-01T03:26:58;1034.70;;;963.07;;
14015;SDS011;7083;48.854;9.158;2023-02-01T03:29:30;1030.47;;;959.83;;
14015;SDS011;7083;48.854;9.158;2023-02-01T03:32:03;776.53;;;732.43;;
14015;SDS011;7083;48.854;9.158;2023-02-01T03:34:30;991.37;;;926.50;;
14015;SDS011;7083;48.854;9.158;2023-02-01T03:36:58;1038.90;;;966.53;;
14015;SDS011;7083;48.854;9.158;2023-02-01T03:39:29;1037.00;;;964.60;;
14015;SDS011;7083;48.854;9.158;2023-02-01T03:42:01;1046.70;;;972.93;;
14015;SDS011;7083;48.854;9.158;2023-02-01T03:44:31;878.53;;;816.03;;
14015;SDS011;7083;48.854;9.158;2023-02-01T03:47:02;1042.97;;;969.37;;
14015;SDS011;7083;48.854;9.158;2023-02-01T03:49:33;1045.10;;;971.57;;
14015;SDS011;7083;48.854;9.158;2023-02-01T03:52:03;1059.37;;;984.73;;
14015;SDS011;7083;48.854;9.158;2023-02-01T03:54:32;1012.63;;;940.47;;
14015;SDS011;7083;48.854;9.158;2023-02-01T03:57:01;1046.83;;;972.93;;
14015;SDS011;7083;48.854;9.158;2023-02-01T03:59:32;1006.77;;;934.13;;
14015;SDS011;7083;48.854;9.158;2023-02-01T04:01:59;1999.90;;;999.90;;
14015;SDS011;7083;48.854;9.158;2023-02-01T04:04:26;1026.17;;;956.70;;
14015;SDS011;7083;48.854;9.158;2023-02-01T04:06:52;1071.47;;;996.23;;
14015;SDS011;7083;48.854;9.158;2023-02-01T04:09:20;959.47;;;897.43;;
14015;SDS011;7083;48.854;9.158;2023-02-01T04:11:47;1036.90;;;963.60;;
14015;SDS011;7083;48.854;9.158;2023-02-01T04:14:14;1662.87;;;972.47;;
14015;SDS011;7083;48.854;9.158;2023-02-01T04:16:40;884.67;;;819.97;;
14015;SDS011;7083;48.854;9.158;2023-02-01T04:19:07;1999.90;;;999.90;;
14015;SDS011;7083;48.854;9.158;2023-02-01T04:21:34;1648.77;;;959.33;;
14015;SDS011;7083;48.854;9.158;2023-02-01T04:24:01;901.77;;;835.77;;
14015;SDS011;7083;48.854;9.158;2023-02-01T04:26:29;1017.90;;;945.17;;
14015;SDS011;7083;48.854;9.158;2023-02-01T04:28:56;967.07;;;894.23;;
14015;SDS011;7083;48.854;9.158;2023-02-01T04:31:22;1014.43;;;939.17;;
14015;SDS011;7083;48.854;9.158;2023-02-01T04:33:52;1119.90;;;999.90;;
14015;SDS011;7083;48.854;9.158;2023-02-01T04:36:19;1121.77;;;999.90;;
14015;SDS011;7083;48.854;9.158;2023-02-01T04:38:47;1080.47;;;997.67;;
14015;SDS011;7083;48.854;9.158;2023-02-01T04:41:14;1058.67;;;979.20;;
14015;SDS011;7083;48.854;9.158;2023-02-01T04:43:45;1056.97;;;978.67;;
14015;SDS011;7083;48.854;9.158;2023-02-01T04:46:11;1654.90;;;963.93;;
14015;SDS011;7083;48.854;9.158;2023-02-01T04:48:38;1693.00;;;999.70;;
14015;SDS011;7083;48.854;9.158;2023-02-01T04:51:05;1063.30;;;985.67;;
14015;SDS011;7083;48.854;9.158;2023-02-01T04:53:32;949.27;;;878.40;;
14015;SDS011;7083;48.854;9.158;2023-02-01T04:55:58;1999.90;;;999.90;;
14015;SDS011;7083;48.854;9.158;2023-02-01T04:58:25;835.43;;;773.00;;
14015;SDS011;7083;48.854;9.158;2023-02-01T05:00:53;1019.03;;;944.40;;
14015;SDS011;7083;48.854;9.158;2023-02-01T05:03:20;1054.07;;;980.07;;
14015;SDS011;7083;48.854;9.158;2023-02-01T05:05:46;1103.83;;;999.90;;
14015;SDS011;7083;48.854;9.158;2023-02-01T05:08:13;1118.73;;;999.90;;
14015;SDS011;7083;48.854;9.158;2023-02-01T05:10:40;1107.67;;;999.90;;
14015;SDS011;7083;48.854;9.158;2023-02-01T05:13:07;1128.73;;;999.90;;
14015;SDS011;7083;48.854;9.158;2023-02-01T05:16:07;1143.87;;;999.90;;
14015;SDS011;7083;48.854;9.158;2023-02-01T05:18:34;1150.27;;;999.90;;
14015;SDS011;7083;48.854;9.158;2023-02-01T05:21:01;1137.73;;;999.90;;
14015;SDS011;7083;48.854;9.158;2023-02-01T05:23:27;1150.00;;;999.90;;
14015;SDS011;7083;48.854;9.158;2023-02-01T05:25:57;1139.30;;;999.90;;
14015;SDS011;7083;48.854;9.158;2023-02-01T05:28:25;1117.50;;;999.90;;
14015;SDS011;7083;48.854;9.158;2023-02-01T05:30:52;1110.50;;;999.90;;
14015;SDS011;7083;48.854;9.158;2023-02-01T05:33:21;1105.83;;;999.90;;
14015;SDS011;7083;48.854;9.158;2023-02-01T05:35:48;1125.87;;;999.90;;
14015;SDS011;7083;48.854;9.158;2023-02-01T05:38:16;1116.00;;;999.90;;
14015;SDS011;7083;48.854;9.158;2023-02-01T05:40:43;748.87;;;707.67;;
14015;SDS011;7083;48.854;9.158;2023-02-01T05:43:14;1088.07;;;999.90;;
14015;SDS011;7083;48.854;9.158;2023-02-01T05:45:41;1093.90;;;999.90;;
14015;SDS011;7083;48.854;9.158;2023-02-01T05:48:07;1074.37;;;997.30;;
14015;SDS011;7083;48.854;9.158;2023-02-01T05:50:35;1085.53;;;999.90;;
14015;SDS011;7083;48.854;9.158;2023-02-01T05:53:02;1064.87;;;988.47;;
14015;SDS011;7083;48.854;9.158;2023-02-01T05:55:29;1069.77;;;994.50;;
14015;SDS011;7083;48.854;9.158;2023-02-01T05:57:55;1059.87;;;986.70;;
14015;SDS011;7083;48.854;9.158;2023-02-01T06:00:22;980.73;;;910.80;;
14015;SDS011;7083;48.854;9.158;2023-02-01T06:02:49;802.87;;;756.23;;
14015;SDS011;7083;48.854;9.158;2023-02-01T06:05:16;1381.70;;;997.73;;
14015;SDS011;7083;48.854;9.158;2023-02-01T06:07:44;902.93;;;837.23;;
14015;SDS011;7083;48.854;9.158;2023-02-01T06:10:11;899.57;;;832.90;;
14015;SDS011;7083;48.854;9.158;2023-02-01T06:12:38;1609.60;;;922.53;;
14015;SDS011;7083;48.854;9.158;2023-02-01T06:15:05;1544.13;;;861.57;;
14015;SDS011;7083;48.854;9.158;2023-02-01T06:17:33;1673.47;;;982.30;;
14015;SDS011;7083;48.854;9.158;2023-02-01T06:19:59;1999.90;;;999.90;;
14015;SDS011;7083;48.854;9.158;2023-02-01T06:22:26;1467.83;;;790.77;;
14015;SDS011;7083;48.854;9.158;2023-02-01T06:24:54;1999.90;;;999.90;;
14015;SDS011;7083;48.854;9.158;2023-02-01T06:27:21;1999.90;;;999.90;;
14015;SDS011;7083;48.854;9.158;2023-02-01T06:29:48;1999.90;;;999.90;;
14015;SDS011;7083;48.854;9.158;2023-02-01T06:32:14;1999.90;;;999.90;;
14015;SDS011;7083;48.854;9.158;2023-02-01T06:34:42;829.97;;;780.80;;
14015;SDS011;7083;48.854;9.158;2023-02-01T06:37:09;1999.90;;;999.90;;
14015;SDS011;7083;48.854;9.158;2023-02-01T06:39:36;1999.90;;;999.90;;
14015;SDS011;7083;48.854;9.158;2023-02-01T06:42:04;1999.90;;;999.90;;
14015;SDS011;7083;48.854;9.158;2023-02-01T06:44:31;1999.90;;;999.90;;
14015;SDS011;7083;48.854;9.158;2023-02-01T06:46:57;1999.90;;;999.90;;
14015;SDS011;7083;48.854;9.158;2023-02-01T06:49:24;1999.90;;;999.90;;
14015;SDS011;7083;48.854;9.158;2023-02-01T06:51:51;1559.87;;;877.03;;
14015;SDS011;7083;48.854;9.158;2023-02-01T06:54:18;795.57;;;749.60;;
14015;SDS011;7083;48.854;9.158;2023-02-01T06:56:44;1999.90;;;999.90;;
14015;SDS011;7083;48.854;9.158;2023-02-01T06:59:12;1999.90;;;999.90;;
14015;SDS011;7083;48.854;9.158;2023-02-01T07:01:39;784.97;;;739.90;;
14015;SDS011;7083;48.854;9.158;2023-02-01T07:04:06;1671.97;;;982.23;;
14015;SDS011;7083;48.854;9.158;2023-02-01T07:06:35;1999.90;;;999.90;;
14015;SDS011;7083;48.854;9.158;2023-02-01T07:09:02;1999.90;;;999.90;;
14015;SDS011;7083;48.854;9.158;2023-02-01T07:11:29;1463.37;;;787.63;;
14015;SDS011;7083;48.854;9.158;2023-02-01T07:13:55;1999.90;;;999.90;;
14015;SDS011;7083;48.854;9.158;2023-02-01T07:16:23;1999.90;;;999.90;;
14015;SDS011;7083;48.854;9.158;2023-02-01T07:18:51;1999.90;;;999.90;;
14015;SDS011;7083;48.854;9.158;2023-02-01T07:21:18;1999.90;;;999.90;;
14015;SDS011;7083;48.854;9.158;2023-02-01T07:23:45;1999.90;;;999.90;;
14015;SDS011;7083;48.854;9.158;2023-02-01T07:26:13;1999.90;;;999.90;;
14015;SDS011;7083;48.854;9.158;2023-02-01T07:28:41;808.47;;;760.93;;
14015;SDS011;7083;48.854;9.158;2023-02-01T07:31:08;1999.90;;;999.90;;
14015;SDS011;7083;48.854;9.158;2023-02-01T07:33:38;1999.90;;;999.90;;
14015;SDS011;7083;48.854;9.158;2023-02-01T07:36:06;1999.90;;;999.90;;
14015;SDS011;7083;48.854;9.158;2023-02-01T07:38:36;1999.90;;;999.90;;
14015;SDS011;7083;48.854;9.158;2023-02-01T07:41:04;1999.90;;;999.90;;
14015;SDS011;7083;48.854;9.158;2023-02-01T07:43:31;1999.90;;;999.90;;
14015;SDS011;7083;48.854;9.158;2023-02-01T07:45:59;1999.90;;;999.90;;
14015;SDS011;7083;48.854;9.158;2023-02-01T07:48:25;1999.90;;;999.90;;
14015;SDS011;7083;48.854;9.158;2023-02-01T07:51:00;1999.90;;;999.90;;
14015;SDS011;7083;48.854;9.158;2023-02-01T07:53:28;1999.90;;;999.90;;
14015;SDS011;7083;48.854;9.158;2023-02-01T07:55:56;1999.90;;;999.90;;
14015;SDS011;7083;48.854;9.158;2023-02-01T07:58:23;1999.90;;;999.90;;
14015;SDS011;7083;48.854;9.158;2023-02-01T08:00:50;1999.90;;;999.90;;
14015;SDS011;7083;48.854;9.158;2023-02-01T08:03:31;1999.90;;;999.90;;
14015;SDS011;7083;48.854;9.158;2023-02-01T08:05:59;1999.90;;;999.90;;
14015;SDS011;7083;48.854;9.158;2023-02-01T08:08:26;1999.90;;;999.90;;
14015;SDS011;7083;48.854;9.158;2023-02-01T08:10:56;1999.90;;;999.90;;
14015;SDS011;7083;48.854;9.158;2023-02-01T08:13:23;1999.90;;;999.90;;
14015;SDS011;7083;48.854;9.158;2023-02-01T08:15:50;1999.90;;;999.90;;
14015;SDS011;7083;48.854;9.158;2023-02-01T08:18:17;1999.90;;;999.90;;
14015;SDS011;7083;48.854;9.158;2023-02-01T08:20:44;1999.90;;;999.90;;
14015;SDS011;7083;48.854;9.158;2023-02-01T08:23:14;1999.90;;;999.90;;
14015;SDS011;7083;48.854;9.158;2023-02-01T08:25:40;1999.90;;;999.90;;
14015;SDS011;7083;48.854;9.158;2023-02-01T08:28:07;1999.90;;;999.90;;
14015;SDS011;7083;48.854;9.158;2023-02-01T08:30:34;1999.90;;;999.90;;
14015;SDS011;7083;48.854;9.158;2023-02-01T08:33:02;1999.90;;;999.90;;
14015;SDS011;7083;48.854;9.158;2023-02-01T08:35:30;1999.90;;;999.90;;
14015;SDS011;7083;48.854;9.158;2023-02-01T08:37:57;1999.90;;;999.90;;
14015;SDS011;7083;48.854;9.158;2023-02-01T08:40:25;861.23;;;807.93;;
14015;SDS011;7083;48.854;9.158;2023-02-01T08:42:53;1999.90;;;999.90;;
14015;SDS011;7083;48.854;9.158;2023-02-01T08:45:20;1999.90;;;999.90;;
14015;SDS011;7083;48.854;9.158;2023-02-01T08:47:49;1999.90;;;999.90;;
14015;SDS011;7083;48.854;9.158;2023-02-01T08:50:16;1999.90;;;999.90;;
14015;SDS011;7083;48.854;9.158;2023-02-01T08:52:44;1999.90;;;999.90;;
14015;SDS011;7083;48.854;9.158;2023-02-01T08:55:11;1999.90;;;999.90;;
14015;SDS011;7083;48.854;9.158;2023-02-01T08:57:39;1999.90;;;999.90;;
14015;SDS011;7083;48.854;9.158;2023-02-01T09:00:07;1999.90;;;999.90;;
14015;SDS011;7083;48.854;9.158;2023-02-01T09:02:36;1999.90;;;999.90;;
14015;SDS011;7083;48.854;9.158;2023-02-01T09:05:03;880.93;;;826.27;;
14015;SDS011;7083;48.854;9.158;2023-02-01T09:07:31;1999.90;;;999.90;;
14015;SDS011;7083;48.854;9.158;2023-02-01T09:09:58;1999.90;;;999.90;;
14015;SDS011;7083;48.854;9.158;2023-02-01T09:12:26;1999.90;;;999.90;;
14015;SDS011;7083;48.854;9.158;2023-02-01T09:14:54;1999.90;;;999.90;;
14015;SDS011;7083;48.854;9.158;2023-02-01T09:17:21;1999.90;;;999.90;;
14015;SDS011;7083;48.854;9.158;2023-02-01T09:19:48;861.13;;;808.00;;
14015;SDS011;7083;48.854;9.158;2023-02-01T09:22:14;1999.90;;;999.90;;
14015;SDS011;7083;48.854;9.158;2023-02-01T09:24:41;1999.90;;;999.90;;
14015;SDS011;7083;48.854;9.158;2023-02-01T09:27:08;1999.90;;;999.90;;
14015;SDS011;7083;48.854;9.158;2023-02-01T09:29:34;850.50;;;799.10;;
14015;SDS011;7083;48.854;9.158;2023-02-01T09:32:03;1999.90;;;999.90;;
14015;SDS011;7083;48.854;9.158;2023-02-01T09:34:31;1999.90;;;999.90;;
14015;SDS011;7083;48.854;9.158;2023-02-01T09:36:58;1999.90;;;999.90;;
14015;SDS011;7083;48.854;9.158;2023-02-01T09:39:25;1999.90;;;999.90;;
14015;SDS011;7083;48.854;9.158;2023-02-01T09:41:55;884.43;;;829.53;;
14015;SDS011;7083;48.854;9.158;2023-02-01T09:44:32;873.57;;;819.70;;
14015;SDS011;7083;48.854;9.158;2023-02-01T09:47:13;1999.90;;;999.90;;
14015;SDS011;7083;48.854;9.158;2023-02-01T09:49:44;884.03;;;828.73;;
14015;SDS011;7083;48.854;9.158;2023-02-01T09:52:16;1999.90;;;999.90;;
14015;SDS011;7083;48.854;9.158;2023-02-01T09:54:47;1999.90;;;999.90;;
14015;SDS011;7083;48.854;9.158;2023-02-01T09:57:19;1999.90;;;999.90;;
14015;SDS011;7083;48.854;9.158;2023-02-01T09:59:51;1999.90;;;999.90;;
14015;SDS011;7083;48.854;9.158;2023-02-01T10:02:23;1999.90;;;999.90;;
14015;SDS011;7083;48.854;9.158;2023-02-01T10:04:52;1999.90;;;999.90;;
14015;SDS011;7083;48.854;9.158;2023-02-01T10:07:23;1999.90;;;999.90;;
14015;SDS011;7083;48.854;9.158;2023-02-01T10:09:58;1999.90;;;999.90;;
14015;SDS011;7083;48.854;9.158;2023-02-01T10:12:36;1999.90;;;999.90;;
14015;SDS011;7083;48.854;9.158;2023-02-01T10:15:17;1999.90;;;999.90;;
14015;SDS011;7083;48.854;9.158;2023-02-01T10:17:55;1999.90;;;999.90;;
14015;SDS011;7083;48.854;9.158;2023-02-01T10:20:36;1999.90;;;999.90;;
14015;SDS011;7083;48.854;9.158;2023-02-01T10:23:17;1999.90;;;999.90;;
14015;SDS011;7083;48.854;9.158;2023-02-01T10:25:59;1999.90;;;999.90;;
14015;SDS011;7083;48.854;9.158;2023-02-01T10:28:31;772.27;;;725.83;;
14015;SDS011;7083;48.854;9.158;2023-02-01T10:31:00;1999.90;;;999.90;;
14015;SDS011;7083;48.854;9.158;2023-02-01T10:33:32;1999.90;;;999.90;;
14015;SDS011;7083;48.854;9.158;2023-02-01T10:36:01;1999.90;;;999.90;;
14015;SDS011;7083;48.854;9.158;2023-02-01T10:38:36;1999.90;;;999.90;;
14015;SDS011;7083;48.854;9.158;2023-02-01T10:41:03;1999.90;;;999.90;;
14015;SDS011;7083;48.854;9.158;2023-02-01T10:43:38;1999.90;;;999.90;;
14015;SDS011;7083;48.854;9.158;2023-02-01T10:46:06;1999.90;;;999.90;;
14015;SDS011;7083;48.854;9.158;2023-02-01T10:48:35;1999.90;;;999.90;;
14015;SDS011;7083;48.854;9.158;2023-02-01T10:51:05;1999.90;;;999.90;;
14015;SDS011;7083;48.854;9.158;2023-02-01T10:53:39;1999.90;;;999.90;;
14015;SDS011;7083;48.854;9.158;2023-02-01T10:56:10;1999.90;;;999.90;;
14015;SDS011;7083;48.854;9.158;2023-02-01T10:58:42;1999.90;;;999.90;;
14015;SDS011;7083;48.854;9.158;2023-02-01T11:01:10;1999.90;;;999.90;;
14015;SDS011;7083;48.854;9.158;2023-02-01T11:03:45;1999.90;;;999.90;;
14015;SDS011;7083;48.854;9.158;2023-02-01T11:06:22;1999.90;;;999.90;;
14015;SDS011;7083;48.854;9.158;2023-02-01T11:08:53;1999.90;;;999.90;;
14015;SDS011;7083;48.854;9.158;2023-02-01T11:11:22;1999.90;;;999.90;;
14015;SDS011;7083;48.854;9.158;2023-02-01T11:13:54;1999.90;;;999.90;;
14015;SDS011;7083;48.854;9.158;2023-02-01T11:16:28;1999.90;;;999.90;;
14015;SDS011;7083;48.854;9.158;2023-02-01T11:18:58;1999.90;;;999.90;;
14015;SDS011;7083;48.854;9.158;2023-02-01T11:21:25;1999.90;;;999.90;;
14015;SDS011;7083;48.854;9.158;2023-02-01T11:23:52;1999.90;;;999.90;;
14015;SDS011;7083;48.854;9.158;2023-02-01T11:26:22;1999.90;;;999.90;;
14015;SDS011;7083;48.854;9.158;2023-02-01T11:28:51;1999.90;;;999.90;;
14015;SDS011;7083;48.854;9.158;2023-02-01T11:31:21;1999.90;;;999.90;;
14015;SDS011;7083;48.854;9.158;2023-02-01T11:33:51;1999.90;;;999.90;;
14015;SDS011;7083;48.854;9.158;2023-02-01T11:36:23;1999.90;;;999.90;;
14015;SDS011;7083;48.854;9.158;2023-02-01T11:38:53;1999.90;;;999.90;;
14015;SDS011;7083;48.854;9.158;2023-02-01T11:41:32;1999.90;;;999.90;;
14015;SDS011;7083;48.854;9.158;2023-02-01T11:44:00;1999.90;;;999.90;;
14015;SDS011;7083;48.854;9.158;2023-02-01T11:46:41;1999.90;;;999.90;;
14015;SDS011;7083;48.854;9.158;2023-02-01T11:49:14;1999.90;;;999.90;;
14015;SDS011;7083;48.854;9.158;2023-02-01T11:51:49;1999.90;;;999.90;;
14015;SDS011;7083;48.854;9.158;2023-02-01T11:54:33;1999.90;;;999.90;;
14015;SDS011;7083;48.854;9.158;2023-02-01T11:57:16;1999.90;;;999.90;;
14015;SDS011;7083;48.854;9.158;2023-02-01T11:59:58;1999.90;;;999.90;;
14015;SDS011;7083;48.854;9.158;2023-02-01T12:02:51;1999.90;;;999.90;;
14015;SDS011;7083;48.854;9.158;2023-02-01T12:05:48;1999.90;;;999.90;;
14015;SDS011;7083;48.854;9.158;2023-02-01T12:08:25;1999.90;;;999.90;;
14015;SDS011;7083;48.854;9.158;2023-02-01T12:11:10;1999.90;;;999.90;;
14015;SDS011;7083;48.854;9.158;2023-02-01T12:13:53;1999.90;;;999.90;;
14015;SDS011;7083;48.854;9.158;2023-02-01T12:16:27;1999.90;;;999.90;;
14015;SDS011;7083;48.854;9.158;2023-02-01T12:19:04;1999.90;;;999.90;;
14015;SDS011;7083;48.854;9.158;2023-02-01T12:21:46;1999.90;;;999.90;;
14015;SDS011;7083;48.854;9.158;2023-02-01T12:24:32;1999.90;;;999.90;;
14015;SDS011;7083;48.854;9.158;2023-02-01T12:30:12;1999.90;;;999.90;;
14015;SDS011;7083;48.854;9.158;2023-02-01T12:32:54;1999.90;;;999.90;;
14015;SDS011;7083;48.854;9.158;2023-02-01T12:35:35;1999.90;;;999.90;;
14015;SDS011;7083;48.854;9.158;2023-02-01T12:38:23;1999.90;;;999.90;;
14015;SDS011;7083;48.854;9.158;2023-02-01T12:41:13;1999.90;;;999.90;;
14015;SDS011;7083;48.854;9.158;2023-02-01T12:44:02;1999.90;;;999.90;;
14015;SDS011;7083;48.854;9.158;2023-02-01T12:46:33;1999.90;;;999.90;;
14015;SDS011;7083;48.854;9.158;2023-02-01T12:49:05;1999.90;;;999.90;;
14015;SDS011;7083;48.854;9.158;2023-02-01T12:51:38;1999.90;;;999.90;;
14015;SDS011;7083;48.854;9.158;2023-02-01T12:54:09;1999.90;;;999.90;;
14015;SDS011;7083;48.854;9.158;2023-02-01T12:56:43;1999.90;;;999.90;;
14015;SDS011;7083;48.854;9.158;2023-02-01T12:59:16;1999.90;;;999.90;;
14015;SDS011;7083;48.854;9.158;2023-02-01T13:01:48;927.57;;;865.37;;
14015;SDS011;7083;48.854;9.158;2023-02-01T13:04:23;1999.90;;;999.90;;
14015;SDS011;7083;48.854;9.158;2023-02-01T13:06:56;862.47;;;807.17;;
14015;SDS011;7083;48.854;9.158;2023-02-01T13:09:28;1999.90;;;999.90;;
14015;SDS011;7083;48.854;9.158;2023-02-01T13:12:04;1999.90;;;999.90;;
14015;SDS011;7083;48.854;9.158;2023-02-01T13:14:38;1999.90;;;999.90;;
14015;SDS011;7083;48.854;9.158;2023-02-01T13:17:12;1999.90;;;999.90;;
14015;SDS011;7083;48.854;9.158;2023-02-01T13:19:42;1999.90;;;999.90;;
14015;SDS011;7083;48.854;9.158;2023-02-01T13:22:13;1999.90;;;999.90;;
14015;SDS011;7083;48.854;9.158;2023-02-01T13:24:47;1999.90;;;999.90;;
14015;SDS011;7083;48.854;9.158;2023-02-01T13:27:17;1999.90;;;999.90;;
14015;SDS011;7083;48.854;9.158;2023-02-01T13:29:46;1999.90;;;999.90;;
14015;SDS011;7083;48.854;9.158;2023-02-01T13:35:23;1999.90;;;999.90;;
14015;SDS011;7083;48.854;9.158;2023-02-01T13:38:06;1999.90;;;999.90;;
14015;SDS011;7083;48.854;9.158;2023-02-01T13:40:48;1999.90;;;999.90;;
14015;SDS011;7083;48.854;9.158;2023-02-01T13:43:26;1999.90;;;999.90;;
14015;SDS011;7083;48.854;9.158;2023-02-01T13:45:56;1999.90;;;999.90;;
14015;SDS011;7083;48.854;9.158;2023-02-01T13:48:29;1999.90;;;999.90;;
14015;SDS011;7083;48.854;9.158;2023-02-01T13:51:00;1999.90;;;999.90;;
14015;SDS011;7083;48.854;9.158;2023-02-01T13:53:28;1999.90;;;999.90;;
14015;SDS011;7083;48.854;9.158;2023-02-01T13:55:57;1999.90;;;999.90;;
14015;SDS011;7083;48.854;9.158;2023-02-01T13:58:31;1999.90;;;999.90;;
14015;SDS011;7083;48.854;9.158;2023-02-01T14:03:59;1999.90;;;999.90;;
14015;SDS011;7083;48.854;9.158;2023-02-01T14:06:36;1999.90;;;999.90;;
14015;SDS011;7083;48.854;9.158;2023-02-01T14:09:12;842.13;;;790.80;;
14015;SDS011;7083;48.854;9.158;2023-02-01T14:11:43;1999.90;;;999.90;;
14015;SDS011;7083;48.854;9.158;2023-02-01T14:23:20;1999.90;;;999.90;;
14015;SDS011;7083;48.854;9.158;2023-02-01T14:26:05;1999.90;;;999.90;;
14015;SDS011;7083;48.854;9.158;2023-02-01T14:28:39;1999.90;;;999.90;;
14015;SDS011;7083;48.854;9.158;2023-02-01T14:34:14;1999.90;;;999.90;;
14015;SDS011;7083;48.854;9.158;2023-02-01T14:36:48;1999.90;;;999.90;;
14015;SDS011;7083;48.854;9.158;2023-02-01T14:39:29;1999.90;;;999.90;;
14015;SDS011;7083;48.854;9.158;2023-02-01T14:42:00;1999.90;;;999.90;;
14015;SDS011;7083;48.854;9.158;2023-02-01T14:44:31;1999.90;;;999.90;;